createdAt,value
2019-03-25T00:02:19.430Z,5.10
2019-03-25T00:07:22.611Z,5.00
2019-03-25T00:12:25.741Z,5.00
2019-03-25T00:17:28.870Z,5.10
2019-03-25T00:22:32.660Z,5.00
2019-03-25T00:27:36.674Z,5.00
2019-03-25T00:32:39.820Z,4.90
2019-03-25T00:37:42.935Z,4.90
2019-03-25T00:42:46.097Z,4.80
2019-03-25T00:47:49.226Z,4.80
2019-03-25T00:52:52.353Z,4.70
2019-03-25T00:57:55.538Z,4.40
2019-03-25T01:02:58.621Z,4.30
2019-03-25T01:08:01.714Z,4.20
2019-03-25T01:13:04.826Z,4.20
2019-03-25T01:18:16.360Z,4.30
2019-03-25T01:23:12.856Z,4.30
2019-03-25T01:28:15.959Z,4.20
2019-03-25T01:33:19.085Z,4.20
2019-03-25T01:38:22.267Z,4.10
2019-03-25T01:43:25.372Z,4.10
2019-03-25T01:48:28.671Z,4.10
2019-03-25T01:53:31.851Z,4.20
2019-03-25T01:58:34.893Z,4.20
2019-03-25T02:03:38.027Z,4.10
2019-03-25T02:08:41.171Z,4.20
2019-03-25T02:13:44.239Z,4.30
2019-03-25T02:18:47.369Z,4.30
2019-03-25T02:23:50.469Z,4.20
2019-03-25T02:28:53.646Z,4.10
2019-03-25T02:33:56.758Z,3.90
2019-03-25T02:38:59.858Z,3.80
2019-03-25T02:44:03.378Z,3.80
2019-03-25T02:49:06.494Z,3.90
2019-03-25T02:54:09.637Z,3.80
2019-03-25T02:59:12.755Z,3.70
2019-03-25T03:04:15.859Z,3.50
2019-03-25T03:09:18.951Z,3.50
2019-03-25T03:14:22.084Z,3.60
2019-03-25T03:19:26.059Z,3.70
2019-03-25T03:24:29.142Z,3.70
2019-03-25T03:29:32.282Z,3.70
2019-03-25T03:34:35.423Z,3.80
2019-03-25T03:39:38.520Z,3.80
2019-03-25T03:44:41.615Z,3.80
2019-03-25T03:49:44.685Z,3.70
2019-03-25T03:54:48.161Z,3.90
2019-03-25T03:59:51.682Z,3.90
2019-03-25T04:04:54.799Z,4.00
2019-03-25T04:09:57.914Z,4.00
2019-03-25T04:15:01.850Z,3.90
2019-03-25T04:20:05.500Z,3.80
2019-03-25T04:25:08.876Z,3.80
2019-03-25T04:30:12.065Z,4.00
2019-03-25T04:35:16.691Z,4.20
2019-03-25T04:40:19.786Z,4.00
2019-03-25T04:45:22.878Z,3.90
2019-03-25T04:50:26.017Z,3.90
2019-03-25T04:55:30.071Z,4.00
2019-03-25T05:00:35.043Z,4.00
2019-03-25T05:05:38.186Z,3.90
2019-03-25T05:10:41.283Z,4.00
2019-03-25T05:15:44.473Z,4.10
2019-03-25T05:20:47.585Z,4.20
2019-03-25T05:25:50.697Z,4.60
2019-03-25T05:30:53.838Z,3.90
2019-03-25T05:35:56.935Z,3.80
2019-03-25T05:41:00.050Z,3.90
2019-03-25T05:46:03.154Z,4.10
2019-03-25T05:51:06.303Z,4.40
2019-03-25T05:56:09.449Z,4.50
2019-03-25T06:01:12.568Z,4.50
2019-03-25T06:06:17.355Z,4.30
2019-03-25T06:11:20.440Z,4.30
2019-03-25T06:16:23.551Z,4.30
2019-03-25T06:21:26.690Z,4.20
2019-03-25T06:26:29.798Z,4.20
2019-03-25T06:31:32.882Z,4.20
2019-03-25T06:36:36.978Z,4.40
2019-03-25T06:41:40.073Z,4.60
2019-03-25T06:46:43.153Z,4.80
2019-03-25T06:51:46.237Z,5.00
2019-03-25T06:56:49.388Z,5.20
2019-03-25T07:01:52.478Z,5.30
2019-03-25T07:06:55.571Z,5.30
2019-03-25T07:11:58.896Z,5.10
2019-03-25T07:17:02.000Z,5.00
2019-03-25T07:22:05.098Z,5.20
2019-03-25T07:27:08.245Z,5.30
2019-03-25T07:32:11.369Z,5.30
2019-03-25T07:37:14.483Z,5.30
2019-03-25T07:42:17.596Z,5.30
2019-03-25T07:47:20.689Z,5.30
2019-03-25T07:52:23.924Z,5.40
2019-03-25T07:57:27.053Z,5.40
2019-03-25T08:02:30.164Z,5.50
2019-03-25T08:07:33.269Z,5.80
2019-03-25T08:12:36.362Z,5.20
2019-03-25T08:17:39.556Z,5.10
2019-03-25T08:22:42.634Z,5.50
2019-03-25T08:27:45.808Z,6.00
2019-03-25T08:32:48.897Z,6.30
2019-03-25T08:37:52.016Z,6.10
2019-03-25T08:42:55.145Z,6.10
2019-03-25T08:47:58.698Z,6.30
2019-03-25T08:53:01.821Z,6.70
2019-03-25T08:58:11.961Z,6.50
2019-03-25T09:03:09.956Z,6.60
2019-03-25T09:08:13.920Z,7.00
2019-03-25T09:13:17.002Z,7.00
2019-03-25T09:18:20.135Z,7.40
2019-03-25T09:23:23.282Z,7.40
2019-03-25T09:28:26.399Z,7.40
2019-03-25T09:33:29.505Z,7.90
2019-03-25T09:38:33.004Z,6.90
2019-03-25T09:43:36.460Z,6.60
2019-03-25T09:48:39.628Z,7.10
2019-03-25T09:53:50.528Z,7.50
2019-03-25T09:58:53.723Z,7.80
2019-03-25T10:03:56.838Z,7.80
2019-03-25T10:09:00.024Z,7.80
2019-03-25T10:14:03.104Z,8.40
2019-03-25T10:19:06.230Z,8.10
2019-03-25T10:24:09.389Z,7.00
2019-03-25T10:29:12.547Z,5.60
2019-03-25T10:34:15.651Z,5.30
2019-03-25T10:39:18.744Z,5.90
2019-03-25T10:44:21.872Z,6.80
2019-03-25T10:49:25.025Z,7.60
2019-03-25T10:54:28.790Z,7.60
2019-03-25T10:59:31.955Z,7.80
2019-03-25T11:04:35.051Z,7.70
2019-03-25T11:09:38.176Z,8.20
2019-03-25T11:14:41.275Z,8.10
2019-03-25T11:19:44.432Z,6.00
2019-03-25T11:24:48.032Z,5.30
2019-03-25T11:29:51.155Z,5.90
2019-03-25T11:34:54.243Z,6.70
2019-03-25T11:39:57.363Z,7.60
2019-03-25T11:45:00.741Z,7.90
2019-03-25T11:50:05.772Z,7.80
2019-03-25T11:55:09.165Z,7.60
2019-03-25T12:00:13.964Z,8.20
2019-03-25T12:05:17.053Z,7.10
2019-03-25T12:10:20.157Z,6.80
2019-03-25T12:15:23.254Z,7.60
2019-03-25T12:20:26.351Z,7.70
2019-03-25T12:25:29.492Z,8.00
2019-03-25T12:30:33.520Z,8.50
2019-03-25T12:35:37.064Z,8.10
2019-03-25T12:40:40.163Z,8.30
2019-03-25T12:45:43.280Z,8.40
2019-03-25T12:50:48.063Z,8.00
2019-03-25T12:55:51.203Z,6.60
2019-03-25T13:00:54.315Z,5.60
2019-03-25T13:05:57.806Z,5.50
2019-03-25T13:11:00.935Z,6.00
2019-03-25T13:16:04.061Z,6.80
2019-03-25T13:21:07.183Z,7.30
2019-03-25T13:26:10.283Z,7.80
2019-03-25T13:31:13.385Z,7.60
2019-03-25T13:36:16.483Z,7.60
2019-03-25T13:41:20.114Z,7.60
2019-03-25T13:46:23.204Z,7.00
2019-03-25T13:51:26.644Z,7.20
2019-03-25T13:56:30.625Z,7.50
2019-03-25T14:01:33.797Z,7.90
2019-03-25T14:06:36.900Z,7.90
2019-03-25T14:11:40.072Z,8.00
2019-03-25T14:16:43.357Z,7.70
2019-03-25T14:21:46.503Z,7.50
2019-03-25T14:26:49.628Z,7.20
2019-03-25T14:31:52.707Z,7.60
2019-03-25T14:36:55.923Z,8.10
2019-03-25T14:41:59.055Z,7.70
2019-03-25T14:47:02.352Z,7.70
2019-03-25T14:52:05.493Z,7.50
2019-03-25T14:57:08.724Z,7.50
2019-03-25T15:02:12.027Z,7.70
2019-03-25T15:07:15.188Z,7.60
2019-03-25T15:12:18.300Z,7.70
2019-03-25T15:17:21.381Z,7.70
2019-03-25T15:22:24.557Z,7.70
2019-03-25T15:27:28.049Z,7.80
2019-03-25T15:32:31.147Z,7.90
2019-03-25T15:37:34.307Z,7.80
2019-03-25T15:42:38.356Z,7.80
2019-03-25T15:47:44.082Z,7.80
2019-03-25T15:52:46.338Z,7.70
2019-03-25T15:57:49.498Z,7.80
2019-03-25T16:02:53.267Z,7.90
2019-03-25T16:07:56.375Z,7.80
2019-03-25T16:12:59.535Z,7.80
2019-03-25T16:18:02.760Z,7.70
2019-03-25T16:23:05.861Z,7.60
2019-03-25T16:28:08.970Z,7.60
2019-03-25T16:33:12.075Z,7.50
2019-03-25T16:38:15.164Z,7.50
2019-03-25T16:43:18.354Z,7.50
2019-03-25T16:48:21.459Z,7.50
2019-03-25T16:53:24.592Z,7.40
2019-03-25T16:58:27.839Z,7.30
2019-03-25T17:03:30.916Z,7.20
2019-03-25T17:08:34.001Z,7.20
2019-03-25T17:13:37.290Z,7.20
2019-03-25T17:18:40.413Z,7.20
2019-03-25T17:23:43.531Z,7.10
2019-03-25T17:28:46.631Z,7.00
2019-03-25T17:33:49.745Z,6.90
2019-03-25T17:38:52.834Z,6.80
2019-03-25T17:43:56.043Z,6.70
2019-03-25T17:48:59.408Z,6.60
2019-03-25T17:54:02.521Z,6.40
2019-03-25T17:59:05.653Z,6.30
2019-03-25T18:04:08.811Z,6.20
2019-03-25T18:09:11.914Z,5.90
2019-03-25T18:14:15.013Z,5.80
2019-03-25T18:19:18.136Z,5.80
2019-03-25T18:24:21.709Z,5.70
2019-03-25T18:29:24.815Z,5.60
2019-03-25T18:34:27.944Z,5.50
2019-03-25T18:39:31.101Z,5.50
2019-03-25T18:44:35.234Z,5.50
2019-03-25T18:49:38.375Z,5.30
2019-03-25T18:54:41.528Z,5.30
2019-03-25T18:59:44.647Z,5.20
2019-03-25T19:04:47.892Z,5.20
2019-03-25T19:09:53.146Z,5.10
2019-03-25T19:14:56.269Z,5.00
2019-03-25T19:20:18.703Z,5.00
2019-03-25T19:25:23.765Z,4.90
2019-03-25T19:30:26.965Z,4.80
2019-03-25T19:35:30.480Z,4.80
2019-03-25T19:40:34.003Z,4.70
2019-03-25T19:45:37.228Z,4.70
2019-03-25T19:50:40.659Z,4.70
2019-03-25T19:55:45.114Z,4.60
2019-03-25T20:00:48.375Z,4.70
2019-03-25T20:05:51.540Z,4.70
2019-03-25T20:10:56.983Z,4.60
2019-03-25T20:16:00.486Z,4.50
2019-03-25T20:21:03.615Z,4.40
2019-03-25T20:26:06.892Z,4.30
2019-03-25T20:31:10.456Z,4.30
2019-03-25T20:36:13.927Z,4.30
2019-03-25T20:41:17.158Z,4.20
2019-03-25T20:46:20.341Z,4.30
2019-03-25T20:51:23.713Z,4.30
2019-03-25T20:56:27.068Z,4.40
2019-03-25T21:01:30.332Z,4.40
2019-03-25T21:06:33.852Z,4.30
2019-03-25T21:11:37.055Z,4.30
2019-03-25T21:16:40.331Z,4.30
2019-03-25T21:21:43.818Z,4.40
2019-03-25T21:26:47.085Z,4.30
2019-03-25T21:31:50.497Z,4.30
2019-03-25T21:36:53.984Z,4.40
2019-03-25T21:41:57.527Z,4.40
2019-03-25T21:47:01.015Z,4.30
2019-03-25T21:52:04.277Z,4.30
2019-03-25T21:57:07.743Z,4.30
2019-03-25T22:02:12.340Z,4.40
2019-03-25T22:07:15.700Z,4.30
2019-03-25T22:12:18.751Z,4.30
2019-03-25T22:17:22.048Z,4.30
2019-03-25T22:22:25.329Z,4.30
2019-03-25T22:27:29.636Z,4.40
2019-03-25T22:32:32.979Z,4.30
2019-03-25T22:37:36.191Z,4.40
2019-03-25T22:42:40.389Z,4.80
2019-03-25T22:47:44.494Z,5.10
2019-03-25T22:52:48.537Z,5.30
2019-03-25T22:57:51.677Z,5.40
2019-03-25T23:02:59.924Z,5.50
2019-03-25T23:08:04.802Z,5.60
2019-03-25T23:13:08.184Z,5.60
2019-03-25T23:18:13.066Z,5.60
2019-03-25T23:23:16.350Z,5.70
2019-03-25T23:28:21.403Z,5.80
2019-03-25T23:33:24.612Z,5.70
2019-03-25T23:38:27.822Z,5.70
2019-03-25T23:43:30.954Z,5.70
2019-03-25T23:48:34.242Z,5.70
2019-03-25T23:53:37.456Z,5.70
2019-03-25T23:58:42.463Z,5.70
